createdAt,value
2022-11-20T00:01:07.315Z,0.21
2022-11-20T00:03:33.657Z,0.18
2022-11-20T00:06:03.735Z,0.13
2022-11-20T00:08:30.157Z,0.05
2022-11-20T00:10:56.479Z,0.13
2022-11-20T00:13:23.061Z,0.25
2022-11-20T00:15:49.575Z,0.23
2022-11-20T00:18:15.890Z,0.10
2022-11-20T00:20:42.263Z,-0.01
2022-11-20T00:23:08.587Z,-0.04
2022-11-20T00:25:35.430Z,-0.11
2022-11-20T00:28:01.882Z,-0.04
2022-11-20T00:30:28.238Z,0.01
2022-11-20T00:32:57.139Z,-0.04
2022-11-20T00:35:23.481Z,-0.09
2022-11-20T00:37:49.909Z,0.01
2022-11-20T00:40:16.299Z,0.12
2022-11-20T00:42:42.624Z,0.02
2022-11-20T00:45:09.066Z,-0.16
2022-11-20T00:47:35.370Z,-0.04
2022-11-20T00:50:01.675Z,-0.03
2022-11-20T00:52:28.064Z,-0.02
2022-11-20T00:54:54.760Z,0.04
2022-11-20T00:57:21.091Z,-0.04
2022-11-20T00:59:47.520Z,0.11
2022-11-20T01:02:13.903Z,0.12
2022-11-20T01:04:40.211Z,0.16
2022-11-20T01:07:06.569Z,0.12
2022-11-20T01:09:32.964Z,0.16
2022-11-20T01:12:01.401Z,0.21
2022-11-20T01:14:28.196Z,-0.01
2022-11-20T01:16:54.515Z,-0.19
2022-11-20T01:19:22.395Z,-0.17
2022-11-20T01:21:50.453Z,-0.21
2022-11-20T01:24:18.095Z,-0.13
2022-11-20T01:26:44.930Z,-0.05
2022-11-20T01:29:15.874Z,0.04
2022-11-20T01:31:43.362Z,0.13
2022-11-20T01:34:17.173Z,0.19
2022-11-20T01:36:43.903Z,0.14
2022-11-20T01:39:14.262Z,0.08
2022-11-20T01:41:59.499Z,0.09
2022-11-20T01:44:44.291Z,0.08
2022-11-20T01:47:13.837Z,0.24
2022-11-20T01:49:43.594Z,0.24
2022-11-20T01:52:31.408Z,0.28
2022-11-20T01:55:04.786Z,0.31
2022-11-20T01:57:34.208Z,0.06
2022-11-20T02:00:02.295Z,0.10
2022-11-20T02:02:28.982Z,-0.02
2022-11-20T02:04:57.945Z,0.13
2022-11-20T02:07:24.655Z,0.19
2022-11-20T02:09:57.358Z,0.27
2022-11-20T02:12:43.635Z,0.27
2022-11-20T02:15:10.252Z,0.19
2022-11-20T02:17:36.762Z,0.27
2022-11-20T02:20:05.314Z,0.33
2022-11-20T02:22:38.951Z,0.17
2022-11-20T02:25:07.776Z,0.07
2022-11-20T02:27:34.241Z,0.07
2022-11-20T02:30:05.386Z,0.00
2022-11-20T02:32:33.401Z,0.07
2022-11-20T02:35:06.906Z,0.26
2022-11-20T02:37:34.994Z,0.13
2022-11-20T02:40:01.478Z,0.02
2022-11-20T02:42:27.830Z,0.15
2022-11-20T02:44:54.212Z,0.20
2022-11-20T02:47:20.559Z,0.23
2022-11-20T02:49:46.877Z,0.28
2022-11-20T02:52:13.403Z,0.31
2022-11-20T02:54:39.724Z,0.28
2022-11-20T02:57:06.049Z,0.29
2022-11-20T02:59:32.415Z,0.21
2022-11-20T03:01:58.819Z,0.10
2022-11-20T03:04:25.245Z,0.15
2022-11-20T03:06:51.578Z,0.06
2022-11-20T03:09:19.477Z,-0.01
2022-11-20T03:11:46.060Z,0.06
2022-11-20T03:14:12.432Z,0.12
2022-11-20T03:16:38.746Z,-0.01
2022-11-20T03:19:05.070Z,0.03
2022-11-20T03:21:31.411Z,0.18
2022-11-20T03:23:57.748Z,0.13
2022-11-20T03:26:25.188Z,0.15
2022-11-20T03:28:53.076Z,0.28
2022-11-20T03:31:20.789Z,0.16
2022-11-20T03:33:47.217Z,0.01
2022-11-20T03:36:14.692Z,0.25
2022-11-20T03:38:41.536Z,0.28
2022-11-20T03:41:12.307Z,0.23
2022-11-20T03:43:39.663Z,0.31
2022-11-20T03:46:06.117Z,0.25
2022-11-20T03:48:32.559Z,0.23
2022-11-20T03:51:10.905Z,0.25
2022-11-20T03:53:37.215Z,0.10
2022-11-20T03:56:04.097Z,0.20
2022-11-20T03:58:30.443Z,0.23
2022-11-20T04:00:56.781Z,0.22
2022-11-20T04:03:23.196Z,0.08
2022-11-20T04:05:49.565Z,0.11
2022-11-20T04:08:15.882Z,0.04
2022-11-20T04:10:42.212Z,0.05
2022-11-20T04:13:08.515Z,0.05
2022-11-20T04:15:38.337Z,0.06
2022-11-20T04:18:04.991Z,0.10
2022-11-20T04:20:31.319Z,0.08
2022-11-20T04:22:57.674Z,0.10
2022-11-20T04:25:24.054Z,0.15
2022-11-20T04:27:50.392Z,0.01
2022-11-20T04:30:17.152Z,0.02
2022-11-20T04:32:49.428Z,0.11
2022-11-20T04:35:15.824Z,0.11
2022-11-20T04:37:42.135Z,0.14
2022-11-20T04:40:08.647Z,0.09
2022-11-20T04:42:35.013Z,0.20
2022-11-20T04:45:06.671Z,0.22
2022-11-20T04:47:33.009Z,0.23
2022-11-20T04:49:59.404Z,0.18
2022-11-20T04:52:25.755Z,0.09
2022-11-20T04:54:53.858Z,0.16
2022-11-20T04:57:20.667Z,0.34
2022-11-20T04:59:46.994Z,0.29
2022-11-20T05:02:13.595Z,0.23
2022-11-20T05:04:39.959Z,0.26
2022-11-20T05:07:06.365Z,0.18
2022-11-20T05:09:32.812Z,0.21
2022-11-20T05:11:59.160Z,0.12
2022-11-20T05:14:25.493Z,0.19
2022-11-20T05:16:51.905Z,0.18
2022-11-20T05:19:18.309Z,0.16
2022-11-20T05:21:44.796Z,0.00
2022-11-20T05:24:11.243Z,0.18
2022-11-20T05:26:37.574Z,0.09
2022-11-20T05:29:04.159Z,0.21
2022-11-20T05:31:30.534Z,0.23
2022-11-20T05:33:57.415Z,0.20
2022-11-20T05:36:23.778Z,0.12
2022-11-20T05:38:51.036Z,0.07
2022-11-20T05:41:24.715Z,0.15
2022-11-20T05:43:51.099Z,0.16
2022-11-20T05:46:28.208Z,0.30
2022-11-20T05:48:56.247Z,0.35
2022-11-20T05:51:22.676Z,0.29
2022-11-20T05:53:49.136Z,0.42
2022-11-20T05:56:19.679Z,0.37
2022-11-20T05:58:46.618Z,0.50
2022-11-20T06:01:14.437Z,0.49
2022-11-20T06:03:48.873Z,0.47
2022-11-20T06:06:16.514Z,0.38
2022-11-20T06:08:42.943Z,0.39
2022-11-20T06:11:10.672Z,0.39
2022-11-20T06:13:41.860Z,0.32
2022-11-20T06:16:09.520Z,0.34
2022-11-20T06:18:35.969Z,0.17
2022-11-20T06:21:02.331Z,0.39
2022-11-20T06:23:29.379Z,0.41
2022-11-20T06:26:10.974Z,0.43
2022-11-20T06:28:37.323Z,0.37
2022-11-20T06:31:03.984Z,0.45
2022-11-20T06:33:36.282Z,0.46
2022-11-20T06:36:08.931Z,0.35
2022-11-20T06:38:43.438Z,0.20
2022-11-20T06:41:14.419Z,0.30
2022-11-20T06:43:46.926Z,0.20
2022-11-20T06:46:13.856Z,0.29
2022-11-20T06:48:40.533Z,0.32
2022-11-20T06:51:07.882Z,0.38
2022-11-20T06:53:39.390Z,0.33
2022-11-20T06:56:06.260Z,0.39
2022-11-20T06:58:33.674Z,0.28
2022-11-20T07:01:00.754Z,0.47
2022-11-20T07:03:27.253Z,0.59
2022-11-20T07:05:55.610Z,0.65
2022-11-20T07:08:23.341Z,0.67
2022-11-20T07:10:49.684Z,0.61
2022-11-20T07:13:16.007Z,0.49
2022-11-20T07:15:42.375Z,0.50
2022-11-20T07:18:08.794Z,0.51
2022-11-20T07:20:35.207Z,0.67
2022-11-20T07:23:01.566Z,0.67
2022-11-20T07:25:30.032Z,0.81
2022-11-20T07:27:59.722Z,0.84
2022-11-20T07:30:33.929Z,0.78
2022-11-20T07:33:00.249Z,0.87
2022-11-20T07:35:26.600Z,0.81
2022-11-20T07:37:54.961Z,0.84
2022-11-20T07:40:21.278Z,0.82
2022-11-20T07:42:54.930Z,0.86
2022-11-20T07:45:22.087Z,0.64
2022-11-20T07:47:54.449Z,0.83
2022-11-20T07:50:21.088Z,1.00
2022-11-20T07:52:49.643Z,0.82
2022-11-20T07:55:16.229Z,1.00
2022-11-20T07:57:42.842Z,0.95
2022-11-20T08:00:10.636Z,0.84
2022-11-20T08:02:43.180Z,0.94
2022-11-20T08:05:10.513Z,0.85
2022-11-20T08:07:38.722Z,0.95
2022-11-20T08:10:07.004Z,0.95
2022-11-20T08:12:52.123Z,1.16
2022-11-20T08:15:19.542Z,1.23
2022-11-20T08:18:02.063Z,1.34
2022-11-20T08:20:32.644Z,1.36
2022-11-20T08:23:06.709Z,1.34
2022-11-20T08:25:33.757Z,1.39
2022-11-20T08:28:04.196Z,1.47
2022-11-20T08:30:36.096Z,1.46
2022-11-20T08:33:04.706Z,1.49
2022-11-20T08:35:34.076Z,1.42
2022-11-20T08:38:00.456Z,1.42
2022-11-20T08:40:27.750Z,1.50
2022-11-20T08:42:54.134Z,1.57
2022-11-20T08:45:23.728Z,1.47
2022-11-20T08:47:56.505Z,1.48
2022-11-20T08:50:22.868Z,1.63
2022-11-20T08:52:51.247Z,1.49
2022-11-20T08:55:17.608Z,1.63
2022-11-20T08:57:48.099Z,1.63
2022-11-20T09:00:18.811Z,1.61
2022-11-20T09:02:45.111Z,1.66
2022-11-20T09:05:12.492Z,1.68
2022-11-20T09:07:38.840Z,1.64
2022-11-20T09:12:52.880Z,1.79
2022-11-20T09:15:19.919Z,1.85
2022-11-20T09:17:56.529Z,1.94
2022-11-20T09:20:23.277Z,1.98
2022-11-20T09:22:49.644Z,1.98
2022-11-20T09:25:16.057Z,2.05
2022-11-20T09:27:46.649Z,2.08
2022-11-20T09:30:14.964Z,2.07
2022-11-20T09:32:41.583Z,2.16
2022-11-20T09:35:08.820Z,2.14
2022-11-20T09:37:35.292Z,2.08
2022-11-20T09:40:01.875Z,2.10
2022-11-20T09:42:52.842Z,2.14
2022-11-20T09:45:42.428Z,2.07
2022-11-20T09:48:17.795Z,1.96
2022-11-20T09:50:54.619Z,2.10
2022-11-20T09:53:41.980Z,2.18
2022-11-20T09:56:10.446Z,2.20
2022-11-20T09:58:42.754Z,2.27
2022-11-20T10:01:20.657Z,2.34
2022-11-20T10:03:49.037Z,2.39
2022-11-20T10:06:17.979Z,2.40
2022-11-20T10:08:48.515Z,2.33
2022-11-20T10:11:24.516Z,2.36
2022-11-20T10:13:58.136Z,2.35
2022-11-20T10:16:24.488Z,2.34
2022-11-20T10:19:03.007Z,2.42
2022-11-20T10:21:50.024Z,2.29
2022-11-20T10:24:32.573Z,2.36
2022-11-20T10:27:16.731Z,2.31
2022-11-20T10:29:46.620Z,2.05
2022-11-20T10:32:17.624Z,2.18
2022-11-20T10:34:54.118Z,2.27
2022-11-20T10:37:24.439Z,2.35
2022-11-20T10:40:04.503Z,2.35
2022-11-20T10:42:52.241Z,2.45
2022-11-20T10:45:48.438Z,2.47
2022-11-20T10:48:17.783Z,2.33
2022-11-20T10:51:07.627Z,2.38
2022-11-20T10:53:53.400Z,2.45
2022-11-20T10:56:50.967Z,2.42
2022-11-20T10:59:36.304Z,2.46
2022-11-20T11:02:03.533Z,2.36
2022-11-20T11:04:52.741Z,2.36
2022-11-20T11:07:24.689Z,2.38
2022-11-20T11:10:15.701Z,2.36
2022-11-20T11:12:44.705Z,2.41
2022-11-20T11:15:16.313Z,2.47
2022-11-20T11:17:48.964Z,2.47
2022-11-20T11:20:17.656Z,2.53
2022-11-20T11:22:54.694Z,2.48
2022-11-20T11:25:29.943Z,2.42
2022-11-20T11:27:59.914Z,2.53
2022-11-20T11:30:30.978Z,2.57
2022-11-20T11:33:19.139Z,2.57
2022-11-20T11:35:58.352Z,2.44
2022-11-20T11:38:42.325Z,2.39
2022-11-20T11:41:13.738Z,2.56
2022-11-20T11:44:12.383Z,2.61
2022-11-20T11:46:45.055Z,2.63
2022-11-20T11:49:11.352Z,2.72
2022-11-20T11:52:01.736Z,2.71
2022-11-20T11:54:30.889Z,2.61
2022-11-20T11:57:00.368Z,2.57
2022-11-20T11:59:29.843Z,2.43
2022-11-20T12:01:59.478Z,2.26
2022-11-20T12:04:31.958Z,2.47
2022-11-20T12:10:29.269Z,2.35
2022-11-20T12:12:59.624Z,2.38
2022-11-20T12:15:35.276Z,2.23
2022-11-20T12:18:02.094Z,2.44
2022-11-20T12:20:36.198Z,2.47
2022-11-20T12:23:17.877Z,2.49
2022-11-20T12:25:49.001Z,2.74
2022-11-20T12:28:30.549Z,2.76
2022-11-20T12:31:02.668Z,2.97
2022-11-20T12:33:52.816Z,3.06
2022-11-20T12:36:23.396Z,2.99
2022-11-20T12:38:51.731Z,3.09
2022-11-20T12:41:51.804Z,3.21
2022-11-20T12:44:52.194Z,3.42
2022-11-20T12:47:36.825Z,3.52
2022-11-20T12:50:09.388Z,3.46
2022-11-20T12:52:38.014Z,3.45
2022-11-20T12:55:14.591Z,3.40
2022-11-20T12:57:56.135Z,3.22
2022-11-20T13:00:30.463Z,3.19
2022-11-20T13:02:56.769Z,3.08
2022-11-20T13:05:26.116Z,3.09
2022-11-20T13:07:53.924Z,2.98
2022-11-20T13:10:32.304Z,2.95
2022-11-20T13:13:02.692Z,2.87
2022-11-20T13:15:41.222Z,2.99
2022-11-20T13:18:14.269Z,3.04
2022-11-20T13:21:00.954Z,3.10
2022-11-20T13:23:28.602Z,2.96
2022-11-20T13:26:14.703Z,2.85
2022-11-20T13:28:47.156Z,2.79
2022-11-20T13:31:29.579Z,2.88
2022-11-20T13:33:56.457Z,2.84
2022-11-20T13:36:28.089Z,2.98
2022-11-20T13:38:55.795Z,2.94
2022-11-20T13:48:40.216Z,3.05
2022-11-20T13:51:12.448Z,2.97
2022-11-20T13:54:09.762Z,2.95
2022-11-20T13:56:48.353Z,2.94
2022-11-20T14:06:29.226Z,2.93
2022-11-20T14:08:58.121Z,2.98
2022-11-20T14:11:50.448Z,2.92
2022-11-20T14:14:33.295Z,2.88
2022-11-20T14:17:22.443Z,2.91
2022-11-20T14:19:51.456Z,2.91
2022-11-20T14:22:26.771Z,2.73
2022-11-20T14:25:06.980Z,2.86
2022-11-20T14:30:56.143Z,2.85
2022-11-20T14:33:25.921Z,2.86
2022-11-20T14:35:56.632Z,2.68
2022-11-20T14:38:25.682Z,2.79
2022-11-20T14:40:52.096Z,2.69
2022-11-20T14:43:31.695Z,2.74
2022-11-20T14:46:23.261Z,2.68
2022-11-20T14:48:51.334Z,2.70
2022-11-20T14:51:24.804Z,2.61
2022-11-20T14:53:57.237Z,2.52
2022-11-20T14:56:25.024Z,2.56
2022-11-20T14:58:58.704Z,2.68
2022-11-20T15:01:39.224Z,2.56
2022-11-20T15:04:18.203Z,2.74
2022-11-20T15:06:52.102Z,2.69
2022-11-20T15:09:31.283Z,2.76
2022-11-20T15:12:02.546Z,2.71
2022-11-20T15:14:31.965Z,2.71
2022-11-20T15:17:12.551Z,2.63
2022-11-20T15:19:39.264Z,2.65
2022-11-20T15:22:11.052Z,2.59
2022-11-20T15:24:37.748Z,2.72
2022-11-20T15:27:04.107Z,2.73
2022-11-20T15:29:31.099Z,2.71
2022-11-20T15:31:57.787Z,2.72
2022-11-20T15:34:28.023Z,2.69
2022-11-20T15:36:55.673Z,2.61
2022-11-20T15:39:22.291Z,2.58
2022-11-20T15:41:57.742Z,2.62
2022-11-20T15:44:24.538Z,2.65
2022-11-20T15:47:05.985Z,2.60
2022-11-20T15:49:32.925Z,2.63
2022-11-20T15:52:14.314Z,2.58
2022-11-20T15:54:47.825Z,2.62
2022-11-20T15:57:14.145Z,2.69
2022-11-20T15:59:42.280Z,2.69
2022-11-20T16:02:19.102Z,2.74
2022-11-20T16:04:46.915Z,2.64
2022-11-20T16:07:14.683Z,2.74
2022-11-20T16:09:41.494Z,2.54
2022-11-20T16:16:12.008Z,2.78
2022-11-20T16:19:13.968Z,2.66
2022-11-20T16:21:48.835Z,2.71
2022-11-20T16:24:23.273Z,2.73
2022-11-20T16:26:54.975Z,2.68
2022-11-20T16:29:45.399Z,2.71
2022-11-20T16:32:18.811Z,2.65
2022-11-20T16:34:53.112Z,2.72
2022-11-20T16:37:19.426Z,2.75
2022-11-20T16:39:45.736Z,2.81
2022-11-20T16:42:14.139Z,2.84
2022-11-20T16:51:55.979Z,2.86
2022-11-20T16:57:52.608Z,2.77
2022-11-20T17:00:38.907Z,2.79
2022-11-20T17:03:07.943Z,2.80
2022-11-20T17:06:02.045Z,2.83
2022-11-20T17:08:34.595Z,2.85
2022-11-20T17:11:05.486Z,2.82
2022-11-20T17:13:40.685Z,2.82
2022-11-20T17:16:11.236Z,2.82
2022-11-20T17:18:58.325Z,2.81
2022-11-20T17:25:34.475Z,2.86
2022-11-20T17:28:00.787Z,2.83
2022-11-20T17:31:06.137Z,2.78
2022-11-20T17:36:55.432Z,2.58
2022-11-20T17:39:21.756Z,2.71
2022-11-20T17:42:11.949Z,2.83
2022-11-20T17:45:07.252Z,2.59
2022-11-20T17:47:35.006Z,2.67
2022-11-20T17:50:01.356Z,2.65
2022-11-20T17:52:27.802Z,2.59
2022-11-20T17:54:55.981Z,2.53
2022-11-20T17:57:56.521Z,2.66
2022-11-20T18:00:23.761Z,2.71
2022-11-20T18:02:50.187Z,2.52
2022-11-20T18:05:16.545Z,2.56
2022-11-20T18:07:43.058Z,2.55
2022-11-20T18:10:09.856Z,2.59
2022-11-20T18:12:36.440Z,2.68
2022-11-20T18:15:02.870Z,2.73
2022-11-20T18:17:29.268Z,2.77
2022-11-20T18:20:21.655Z,2.74
2022-11-20T18:22:43.077Z,2.71
2022-11-20T18:25:09.511Z,2.68
2022-11-20T18:27:36.044Z,2.53
2022-11-20T18:30:24.583Z,2.42
2022-11-20T18:32:50.982Z,2.33
2022-11-20T18:35:17.304Z,2.32
2022-11-20T18:38:22.736Z,2.21
2022-11-20T18:40:49.043Z,2.28
2022-11-20T18:43:34.028Z,2.21
2022-11-20T18:46:03.883Z,2.28
2022-11-20T18:48:33.336Z,2.26
2022-11-20T18:51:08.726Z,2.31
2022-11-20T18:53:36.003Z,2.25
2022-11-20T18:56:09.320Z,2.25
2022-11-20T18:58:37.488Z,2.36
2022-11-20T19:01:15.108Z,2.32
2022-11-20T19:03:42.924Z,2.28
2022-11-20T19:06:15.651Z,2.09
2022-11-20T19:09:10.496Z,1.90
2022-11-20T19:11:37.689Z,2.13
2022-11-20T19:14:06.315Z,2.15
2022-11-20T19:16:32.965Z,2.25
2022-11-20T19:19:03.226Z,2.20
2022-11-20T19:21:30.481Z,2.18
2022-11-20T19:23:58.342Z,2.24
2022-11-20T19:26:24.964Z,2.15
2022-11-20T19:28:51.417Z,2.17
2022-11-20T19:31:24.684Z,2.04
2022-11-20T19:33:54.929Z,2.04
2022-11-20T19:36:25.291Z,1.99
2022-11-20T19:38:52.068Z,1.97
2022-11-20T19:41:19.922Z,1.94
2022-11-20T19:43:49.922Z,2.04
2022-11-20T19:46:29.227Z,1.97
2022-11-20T19:48:56.143Z,1.92
2022-11-20T19:51:35.010Z,1.96
2022-11-20T19:54:01.878Z,2.00
2022-11-20T19:56:29.832Z,2.08
2022-11-20T19:59:08.349Z,2.16
2022-11-20T20:01:35.337Z,2.17
2022-11-20T20:04:05.867Z,2.19
2022-11-20T20:06:33.245Z,2.17
2022-11-20T20:09:01.683Z,2.17
2022-11-20T20:11:28.886Z,2.25
2022-11-20T20:13:56.379Z,2.17
2022-11-20T20:16:23.763Z,2.23
2022-11-20T20:18:53.896Z,2.21
2022-11-20T20:21:43.130Z,2.25
2022-11-20T20:24:09.719Z,2.23
2022-11-20T20:27:14.071Z,2.14
2022-11-20T20:29:40.421Z,2.22
2022-11-20T20:32:06.727Z,2.24
2022-11-20T20:34:33.068Z,2.33
2022-11-20T20:36:59.879Z,2.38
2022-11-20T20:39:26.378Z,2.36
2022-11-20T20:42:12.964Z,2.34
2022-11-20T20:44:57.882Z,2.36
2022-11-20T20:48:06.438Z,2.35
2022-11-20T20:50:32.792Z,2.28
2022-11-20T20:52:59.108Z,2.34
2022-11-20T20:55:25.611Z,2.35
2022-11-20T20:57:53.615Z,2.38
2022-11-20T21:00:19.955Z,2.32
2022-11-20T21:02:46.324Z,2.42
2022-11-20T21:08:49.332Z,2.34
2022-11-20T21:11:17.040Z,2.42
2022-11-20T21:13:44.633Z,2.43
2022-11-20T21:16:11.858Z,2.36
2022-11-20T21:19:01.183Z,2.34
2022-11-20T21:21:46.251Z,2.47
2022-11-20T21:24:12.572Z,2.41
2022-11-20T21:26:38.904Z,2.41
2022-11-20T21:29:05.217Z,2.46
2022-11-20T21:31:31.616Z,2.43
2022-11-20T21:33:58.609Z,2.30
2022-11-20T21:36:26.919Z,2.20
2022-11-20T21:38:56.453Z,2.41
2022-11-20T21:41:23.832Z,2.43
2022-11-20T21:44:29.555Z,2.37
2022-11-20T21:46:46.006Z,2.47
2022-11-20T21:49:14.580Z,2.49
2022-11-20T21:51:41.086Z,2.57
2022-11-20T21:54:07.617Z,2.57
2022-11-20T21:56:33.980Z,2.49
2022-11-20T21:59:00.526Z,2.57
2022-11-20T22:01:34.710Z,2.66
2022-11-20T22:04:02.196Z,2.70
2022-11-20T22:06:33.006Z,2.73
2022-11-20T22:08:59.854Z,2.66
2022-11-20T22:11:26.218Z,2.71
2022-11-20T22:14:18.845Z,2.75
2022-11-20T22:16:45.214Z,2.80
2022-11-20T22:22:33.393Z,2.70
2022-11-20T22:24:59.939Z,2.67
2022-11-20T22:27:26.247Z,2.66
2022-11-20T22:29:59.607Z,2.69
2022-11-20T22:32:25.982Z,2.75
2022-11-20T22:35:20.287Z,2.77
2022-11-20T22:37:49.591Z,2.80
2022-11-20T22:40:16.514Z,2.79
2022-11-20T22:42:46.225Z,2.83
2022-11-20T22:45:15.928Z,2.87
2022-11-20T22:47:42.564Z,2.90
2022-11-20T22:50:09.058Z,2.77
2022-11-20T22:52:35.373Z,2.79
2022-11-20T22:55:01.682Z,2.93
2022-11-20T22:57:27.987Z,2.85
2022-11-20T22:59:54.364Z,2.88
2022-11-20T23:02:20.801Z,2.77
2022-11-20T23:04:47.137Z,2.87
2022-11-20T23:07:13.468Z,2.71
2022-11-20T23:09:39.860Z,2.81
2022-11-20T23:12:06.451Z,2.89
2022-11-20T23:14:33.343Z,2.94
2022-11-20T23:17:02.929Z,2.94
2022-11-20T23:19:29.258Z,2.98
2022-11-20T23:21:55.577Z,2.96
2022-11-20T23:24:21.960Z,2.99
2022-11-20T23:26:48.344Z,3.05
2022-11-20T23:29:15.681Z,3.01
2022-11-20T23:31:42.168Z,2.92
2022-11-20T23:34:08.516Z,2.87
2022-11-20T23:36:34.968Z,2.99
2022-11-20T23:39:01.292Z,3.09
2022-11-20T23:41:27.848Z,3.13
2022-11-20T23:43:54.193Z,2.98
2022-11-20T23:46:22.582Z,3.08
2022-11-20T23:48:49.001Z,2.97
2022-11-20T23:51:15.434Z,2.96
2022-11-20T23:53:41.755Z,3.00
2022-11-20T23:56:14.649Z,3.06
2022-11-20T23:58:41.459Z,3.07
